Time;durP1;ratioP1;P1;durP2;ratioP2;P2;SDS_P1;SDS_P2;PMS_P1;PMS_P2;Temp;Humidity;BMP_temperature;BMP_pressure;BME280_temperature;BME280_humidity;BME280_pressure;Samples;Min_cycle;Max_cycle;Signal;HPM_P1;HPM_P2
2023/03/27 00:00:43;;;;;;;1.15;0.65;;;8.10;99.90;;;;;;5053455;28;20078;-67
2023/03/27 00:03:11;;;;;;;1.98;0.60;;;8.20;99.90;;;;;;5065092;28;20025;-67
2023/03/27 00:05:36;;;;;;;1.27;0.70;;;8.20;99.90;;;;;;5073073;28;20056;-66
2023/03/27 00:08:03;;;;;;;0.77;0.73;;;8.10;99.90;;;;;;5074487;28;20052;-66
2023/03/27 00:10:28;;;;;;;;;;;8.20;99.90;;;;;;5074551;28;20035;-65
2023/03/27 00:12:54;;;;;;;3.05;1.02;;;8.10;99.90;;;;;;5072902;28;19908;-67
2023/03/27 00:15:20;;;;;;;2.00;1.20;;;8.10;99.90;;;;;;5052830;28;20040;-67
2023/03/27 00:17:48;;;;;;;1.13;0.90;;;8.10;99.90;;;;;;5052824;28;20021;-66
2023/03/27 00:20:16;;;;;;;1.88;1.17;;;8.10;99.90;;;;;;5064373;28;20016;-67
2023/03/27 00:22:42;;;;;;;2.83;1.10;;;8.10;99.90;;;;;;5074170;28;20407;-67
2023/03/27 00:25:09;;;;;;;2.50;1.10;;;8.00;99.90;;;;;;5073964;28;20035;-67
2023/03/27 00:27:35;;;;;;;1.75;1.17;;;8.00;99.90;;;;;;5070980;28;20036;-67
2023/03/27 00:30:03;;;;;;;2.47;1.30;;;8.00;99.90;;;;;;5069891;28;20031;-67
2023/03/27 00:32:29;;;;;;;1.40;0.95;;;8.00;99.90;;;;;;5053182;28;20036;-67
2023/03/27 00:34:55;;;;;;;2.00;1.40;;;8.00;99.90;;;;;;5054051;28;20473;-67
2023/03/27 00:37:21;;;;;;;1.70;1.03;;;8.00;99.90;;;;;;5053808;28;20028;-67
2023/03/27 00:39:49;;;;;;;2.40;1.33;;;8.00;99.90;;;;;;5053723;28;20384;-66
2023/03/27 00:42:21;;;;;;;2.08;1.10;;;8.00;99.90;;;;;;5053616;28;20017;-67
2023/03/27 00:44:50;;;;;;;1.60;1.25;;;8.00;99.90;;;;;;5053916;28;20071;-67
2023/03/27 00:47:42;;;;;;;2.40;1.35;;;8.10;99.90;;;;;;5053431;28;20089;-68
2023/03/27 00:50:19;;;;;;;2.25;1.45;;;8.00;99.90;;;;;;5052150;28;20052;-67
2023/03/27 00:52:46;;;;;;;2.60;1.70;;;8.10;99.90;;;;;;5053509;28;20025;-67
2023/03/27 00:55:16;;;;;;;4.88;2.90;;;8.10;99.90;;;;;;5053480;28;20025;-67
2023/03/27 00:57:44;;;;;;;5.38;2.83;;;8.00;99.90;;;;;;5053425;28;20029;-67
2023/03/27 01:00:13;;;;;;;5.43;3.55;;;7.90;99.90;;;;;;5053508;28;20503;-67
2023/03/27 01:02:41;;;;;;;6.15;3.03;;;7.90;99.90;;;;;;5053654;28;20350;-67
2023/03/27 01:05:08;;;;;;;7.88;3.75;;;7.90;99.90;;;;;;5052234;28;20025;-67
2023/03/27 01:07:35;;;;;;;5.70;3.30;;;7.90;99.90;;;;;;5053409;28;20095;-67
2023/03/27 01:10:03;;;;;;;6.10;3.67;;;7.90;99.90;;;;;;5060802;28;20056;-67
2023/03/27 01:12:42;;;;;;;6.68;3.88;;;7.80;99.90;;;;;;5054352;28;20036;-68
2023/03/27 01:15:44;;;;;;;8.95;4.22;;;7.80;99.90;;;;;;5055383;28;20029;-69
2023/03/27 01:18:49;;;;;;;8.85;4.00;;;7.80;99.90;;;;;;5032881;28;20048;-68
2023/03/27 01:21:24;;;;;;;6.55;3.97;;;7.80;99.90;;;;;;5032728;28;20497;-68
2023/03/27 01:24:32;;;;;;;7.85;3.92;;;7.70;99.90;;;;;;5033563;28;20492;-68
2023/03/27 01:27:00;;;;;;;9.07;4.28;;;7.70;99.90;;;;;;5016235;28;20115;-68
2023/03/27 01:29:37;;;;;;;9.75;4.10;;;7.60;99.90;;;;;;5032073;28;20033;-67
2023/03/27 01:32:06;;;;;;;10.02;3.83;;;7.60;99.90;;;;;;5032216;28;20086;-67
2023/03/27 01:35:11;;;;;;;6.43;3.38;;;7.60;99.90;;;;;;5023763;28;20037;-67
2023/03/27 01:38:02;;;;;;;8.15;3.17;;;7.60;99.90;;;;;;5036016;28;20026;-67
2023/03/27 01:40:40;;;;;;;5.80;2.90;;;7.50;99.90;;;;;;5034350;28;20387;-67
2023/03/27 01:43:18;;;;;;;8.25;2.70;;;7.50;99.90;;;;;;5014498;28;20072;-67
2023/03/27 01:46:01;;;;;;;11.10;3.13;;;7.50;99.90;;;;;;5031850;28;20128;-67
2023/03/27 01:48:42;;;;;;;12.25;3.50;;;7.40;99.90;;;;;;5030855;28;20524;-67
2023/03/27 01:51:34;;;;;;;12.00;3.20;;;7.30;99.90;;;;;;5031049;28;20036;-67
2023/03/27 01:54:08;;;;;;;9.75;2.97;;;7.30;99.90;;;;;;5037871;28;20076;-68
2023/03/27 01:56:39;;;;;;;10.88;3.22;;;7.20;99.90;;;;;;5053864;28;20048;-68
2023/03/27 01:59:12;;;;;;;10.23;3.25;;;7.20;99.90;;;;;;5067771;28;20016;-68
2023/03/27 02:01:43;;;;;;;9.73;2.90;;;7.30;99.90;;;;;;5071840;28;20020;-68
2023/03/27 02:04:15;;;;;;;13.98;3.63;;;7.30;99.90;;;;;;5072119;28;20059;-67
2023/03/27 02:06:47;;;;;;;8.10;2.40;;;7.20;99.90;;;;;;5074265;28;20075;-67
2023/03/27 02:09:20;;;;;;;10.75;2.65;;;7.30;99.90;;;;;;5072682;28;20017;-67
2023/03/27 02:11:53;;;;;;;10.20;2.78;;;7.20;99.90;;;;;;5072546;28;20031;-67
2023/03/27 02:14:34;;;;;;;5.50;2.08;;;7.30;99.90;;;;;;5071843;28;20020;-66
2023/03/27 02:17:08;;;;;;;7.13;2.15;;;7.30;99.90;;;;;;5071980;28;20441;-68
2023/03/27 02:19:49;;;;;;;8.85;2.13;;;7.30;99.90;;;;;;5073188;28;20032;-67
2023/03/27 02:22:15;;;;;;;13.52;2.22;;;7.30;99.90;;;;;;5072605;28;20078;-67
2023/03/27 02:24:42;;;;;;;7.13;2.33;;;7.20;99.90;;;;;;5072603;28;20482;-66
2023/03/27 02:27:25;;;;;;;9.05;2.13;;;7.20;99.90;;;;;;5071074;28;20492;-68
2023/03/27 02:30:16;;;;;;;9.88;2.47;;;7.20;99.90;;;;;;5072400;28;20380;-68
2023/03/27 02:32:47;;;;;;;8.95;1.77;;;7.10;99.90;;;;;;5072752;28;20021;-68
2023/03/27 02:35:28;;;;;;;9.60;2.20;;;7.10;99.90;;;;;;5072193;28;20055;-68
2023/03/27 02:38:07;;;;;;;14.15;2.63;;;7.10;99.90;;;;;;5072146;28;20013;-68
2023/03/27 02:41:08;;;;;;;7.15;1.80;;;7.00;99.90;;;;;;5071563;28;20017;-67
2023/03/27 02:43:36;;;;;;;9.43;2.13;;;7.00;99.90;;;;;;5064851;28;20501;-68
2023/03/27 02:46:11;;;;;;;9.93;2.25;;;7.00;99.90;;;;;;5075698;28;20040;-67
2023/03/27 02:48:46;;;;;;;10.95;1.92;;;7.00;99.90;;;;;;5074474;28;20078;-68
2023/03/27 02:51:22;;;;;;;11.02;2.20;;;7.00;99.90;;;;;;5074537;28;20025;-67
2023/03/27 02:53:58;;;;;;;9.95;1.85;;;7.00;99.90;;;;;;5074574;28;20101;-67
2023/03/27 02:56:26;;;;;;;12.85;1.95;;;6.90;99.90;;;;;;5076568;28;20075;-67
2023/03/27 02:59:02;;;;;;;8.25;1.95;;;6.80;99.90;;;;;;5075520;28;20021;-67
2023/03/27 03:01:31;;;;;;;8.60;1.80;;;6.80;99.90;;;;;;5075782;28;20381;-67
2023/03/27 03:04:10;;;;;;;8.38;1.90;;;6.80;99.90;;;;;;5075704;28;20078;-68
2023/03/27 03:06:41;;;;;;;11.05;1.67;;;6.90;99.90;;;;;;5056669;28;20032;-68
2023/03/27 03:09:07;;;;;;;9.23;1.60;;;6.90;99.90;;;;;;5054206;28;20025;-66
2023/03/27 03:11:35;;;;;;;6.18;1.42;;;6.80;99.90;;;;;;5055450;28;20103;-67
2023/03/27 03:14:01;;;;;;;8.48;1.48;;;6.80;99.90;;;;;;5055162;28;20450;-68
2023/03/27 03:16:28;;;;;;;11.00;1.80;;;6.70;99.90;;;;;;5055629;28;20104;-67
2023/03/27 03:18:53;;;;;;;9.65;1.52;;;6.70;99.90;;;;;;5055329;28;20106;-67
2023/03/27 03:21:19;;;;;;;5.43;1.43;;;6.70;99.90;;;;;;5055387;28;20045;-66
2023/03/27 03:23:45;;;;;;;6.83;1.60;;;6.70;99.90;;;;;;5055131;28;20031;-67
2023/03/27 03:26:11;;;;;;;5.25;1.00;;;6.60;99.90;;;;;;5055230;28;20362;-67
2023/03/27 03:28:37;;;;;;;9.98;1.40;;;6.60;99.90;;;;;;5054811;28;20037;-67
2023/03/27 03:31:03;;;;;;;9.40;1.87;;;6.50;99.90;;;;;;5064214;28;20373;-67
2023/03/27 03:33:29;;;;;;;8.23;1.20;;;6.40;99.90;;;;;;5075173;28;20381;-67
2023/03/27 03:35:59;;;;;;;9.73;1.50;;;6.30;99.90;;;;;;5074680;28;20025;-67
2023/03/27 03:38:26;;;;;;;4.63;1.13;;;6.20;99.90;;;;;;5074719;28;20024;-67
2023/03/27 03:40:57;;;;;;;11.70;1.83;;;6.20;99.90;;;;;;5069889;28;20020;-67
2023/03/27 03:43:25;;;;;;;10.32;1.45;;;6.10;99.90;;;;;;5072219;28;20116;-68
2023/03/27 03:45:51;;;;;;;6.47;1.67;;;6.00;99.90;;;;;;5054581;28;20029;-68
2023/03/27 03:48:18;;;;;;;8.20;1.48;;;5.90;99.90;;;;;;5054707;28;20024;-68
2023/03/27 03:50:44;;;;;;;;;;;5.70;99.90;;;;;;5055649;28;20033;-68
2023/03/27 03:53:10;;;;;;;8.40;1.55;;;5.60;99.90;;;;;;5054538;28;19911;-67
2023/03/27 03:55:36;;;;;;;14.88;2.05;;;5.50;99.90;;;;;;5054207;28;20151;-68
2023/03/27 03:58:03;;;;;;;9.75;2.35;;;5.40;99.90;;;;;;5072442;28;20107;-68
2023/03/27 04:00:28;;;;;;;7.10;1.55;;;5.50;99.90;;;;;;5075169;28;20028;-67
2023/03/27 04:02:54;;;;;;;9.48;1.73;;;5.40;99.90;;;;;;5075207;28;20020;-66
2023/03/27 04:05:21;;;;;;;12.73;1.60;;;5.30;99.90;;;;;;5074816;28;20047;-67
2023/03/27 04:07:48;;;;;;;10.45;1.75;;;5.20;99.90;;;;;;5057218;28;20096;-67
2023/03/27 04:10:14;;;;;;;8.85;1.38;;;5.20;99.90;;;;;;5054519;28;20075;-67
2023/03/27 04:12:44;;;;;;;7.80;1.60;;;5.10;99.90;;;;;;5068641;28;20036;-67
2023/03/27 04:15:10;;;;;;;8.70;1.58;;;5.10;99.90;;;;;;5074267;28;20396;-67
2023/03/27 04:17:37;;;;;;;9.25;1.80;;;5.10;99.90;;;;;;5068124;28;20032;-68
2023/03/27 04:20:04;;;;;;;7.70;1.60;;;5.10;99.90;;;;;;5072244;28;20028;-68
2023/03/27 04:22:30;;;;;;;8.38;1.75;;;5.00;99.90;;;;;;5067286;28;20024;-67
2023/03/27 04:24:56;;;;;;;13.77;1.63;;;5.00;99.90;;;;;;5074481;28;20036;-68
2023/03/27 04:27:22;;;;;;;7.80;1.60;;;5.00;99.90;;;;;;5073439;28;20028;-67
2023/03/27 04:29:47;;;;;;;12.60;3.20;;;4.90;99.90;;;;;;5073997;28;20146;-67
2023/03/27 04:32:18;;;;;;;8.00;1.43;;;4.90;99.90;;;;;;5072309;28;20282;-68
2023/03/27 04:34:49;;;;;;;12.20;1.85;;;4.90;99.90;;;;;;5075070;28;20017;-67
2023/03/27 04:37:14;;;;;;;13.73;1.92;;;4.80;99.90;;;;;;5068851;28;20020;-67
2023/03/27 04:39:45;;;;;;;9.43;1.90;;;4.80;99.90;;;;;;5074480;28;20396;-69
2023/03/27 04:42:11;;;;;;;8.98;1.58;;;4.80;99.90;;;;;;5064983;28;20663;-68
2023/03/27 04:44:37;;;;;;;;;;;4.90;99.90;;;;;;5054161;28;20053;-69
2023/03/27 04:47:06;;;;;;;12.88;1.55;;;5.00;99.90;;;;;;5055169;28;19916;-70
2023/03/27 04:49:38;;;;;;;8.70;1.70;;;5.00;99.90;;;;;;5063005;28;20067;-68
2023/03/27 04:52:07;;;;;;;7.57;1.80;;;5.00;99.90;;;;;;5072402;28;20029;-69
2023/03/27 04:54:33;;;;;;;11.60;1.63;;;5.00;99.90;;;;;;5055953;28;20020;-69
2023/03/27 04:57:00;;;;;;;9.25;1.60;;;5.10;99.90;;;;;;5055964;28;20021;-69
2023/03/27 04:59:30;;;;;;;8.82;1.67;;;5.10;99.90;;;;;;5053004;28;20032;-72
2023/03/27 05:01:57;;;;;;;12.30;1.63;;;5.00;99.90;;;;;;5059752;28;20106;-70
2023/03/27 05:04:26;;;;;;;12.68;1.42;;;5.00;99.90;;;;;;5056750;28;20025;-69
2023/03/27 05:06:52;;;;;;;6.47;1.40;;;5.20;99.90;;;;;;5058111;28;20024;-68
2023/03/27 05:09:19;;;;;;;;;;;5.10;99.90;;;;;;5073795;28;20099;-68
2023/03/27 05:11:48;;;;;;;10.52;1.50;;;5.10;99.90;;;;;;5053256;28;19951;-68
2023/03/27 05:14:17;;;;;;;9.07;1.95;;;5.10;99.90;;;;;;5060967;28;20047;-67
2023/03/27 05:16:43;;;;;;;8.20;1.88;;;5.20;99.90;;;;;;5069575;28;20024;-66
2023/03/27 05:19:10;;;;;;;6.90;1.30;;;5.30;99.90;;;;;;5070892;28;20032;-67
2023/03/27 05:21:36;;;;;;;11.68;2.33;;;5.30;99.90;;;;;;5072025;28;20025;-67
2023/03/27 05:24:02;;;;;;;6.05;1.50;;;5.20;99.90;;;;;;5060015;28;20051;-66
2023/03/27 05:26:27;;;;;;;6.80;1.43;;;5.20;99.90;;;;;;5067947;28;20032;-68
2023/03/27 05:28:54;;;;;;;4.93;1.50;;;5.20;99.90;;;;;;5072360;28;20028;-67
2023/03/27 05:31:21;;;;;;;10.60;1.60;;;5.30;99.90;;;;;;5073881;28;20020;-66
2023/03/27 05:33:46;;;;;;;;;;;5.30;99.90;;;;;;5071882;28;20492;-68
2023/03/27 05:36:14;;;;;;;5.28;1.70;;;5.20;99.90;;;;;;5068591;28;20380;-68
2023/03/27 05:38:41;;;;;;;7.93;1.40;;;5.30;99.90;;;;;;5072948;28;20065;-68
2023/03/27 05:41:08;;;;;;;9.23;2.15;;;5.30;99.90;;;;;;5071734;28;20013;-67
2023/03/27 05:43:34;;;;;;;8.40;1.80;;;5.50;99.90;;;;;;5069370;28;20483;-67
2023/03/27 05:46:00;;;;;;;7.65;1.85;;;5.50;99.90;;;;;;5072879;28;20048;-67
2023/03/27 05:48:26;;;;;;;11.10;1.83;;;5.50;99.90;;;;;;5073644;28;20040;-68
2023/03/27 05:50:52;;;;;;;10.13;1.67;;;5.50;99.90;;;;;;5067076;28;20340;-68
2023/03/27 05:53:18;;;;;;;8.47;1.57;;;5.50;99.90;;;;;;5054814;28;20024;-68
2023/03/27 05:55:44;;;;;;;7.68;1.60;;;5.60;99.90;;;;;;5054493;28;20048;-67
2023/03/27 05:58:12;;;;;;;9.00;1.40;;;5.60;99.90;;;;;;5064176;28;20020;-69
2023/03/27 06:00:40;;;;;;;9.68;2.00;;;5.70;99.90;;;;;;5072470;28;20028;-66
2023/03/27 06:03:08;;;;;;;9.55;1.55;;;5.60;99.90;;;;;;5061553;28;20025;-66
2023/03/27 06:05:34;;;;;;;7.55;1.52;;;5.50;99.90;;;;;;5052283;28;20043;-66
2023/03/27 06:07:59;;;;;;;7.37;1.43;;;5.60;99.90;;;;;;5059030;28;20100;-67
2023/03/27 06:10:26;;;;;;;8.10;1.33;;;5.60;99.90;;;;;;5063103;28;20054;-67
2023/03/27 06:13:03;;;;;;;9.77;1.67;;;5.60;99.90;;;;;;5048387;28;20704;-67
2023/03/27 06:15:29;;;;;;;8.05;1.25;;;5.70;99.90;;;;;;5061469;28;20390;-67
2023/03/27 06:17:55;;;;;;;9.77;1.75;;;5.90;99.90;;;;;;5067608;28;20055;-67
2023/03/27 06:20:23;;;;;;;7.35;1.58;;;5.90;99.90;;;;;;5071901;28;20028;-68
2023/03/27 06:22:52;;;;;;;6.38;1.33;;;6.00;99.90;;;;;;5067962;28;20546;-67
2023/03/27 06:25:21;;;;;;;10.30;1.50;;;5.80;99.90;;;;;;5056468;28;20029;-67
2023/03/27 06:27:48;;;;;;;10.38;1.55;;;5.80;99.90;;;;;;5058313;28;20036;-67
2023/03/27 06:30:16;;;;;;;11.38;1.90;;;5.70;99.90;;;;;;5074985;28;20024;-66
2023/03/27 06:33:03;;;;;;;10.85;1.55;;;5.80;99.90;;;;;;5064683;28;20146;-66
2023/03/27 06:35:30;;;;;;;7.63;1.30;;;5.80;99.90;;;;;;5075923;28;20041;-67
2023/03/27 06:38:01;;;;;;;8.68;1.30;;;5.70;99.90;;;;;;5067906;28;20467;-67
2023/03/27 06:40:28;;;;;;;12.13;1.33;;;5.70;99.90;;;;;;5068581;28;20031;-66
2023/03/27 06:42:57;;;;;;;5.75;1.40;;;5.90;99.90;;;;;;5074993;28;20021;-66
2023/03/27 06:45:26;;;;;;;7.32;1.70;;;6.00;99.90;;;;;;5074492;28;20043;-66
2023/03/27 06:47:57;;;;;;;6.00;1.35;;;6.00;99.90;;;;;;5069367;28;20082;-67
2023/03/27 06:50:24;;;;;;;7.05;1.48;;;5.90;99.90;;;;;;5061380;28;20442;-67
2023/03/27 06:52:50;;;;;;;10.07;1.70;;;6.00;99.90;;;;;;5071702;28;20370;-67
2023/03/27 06:55:18;;;;;;;7.77;1.37;;;6.10;99.90;;;;;;5054810;28;20054;-67
2023/03/27 06:57:46;;;;;;;13.95;1.90;;;6.10;99.90;;;;;;5054114;28;20310;-67
2023/03/27 07:00:17;;;;;;;7.05;1.38;;;6.00;99.90;;;;;;5054694;28;20539;-67
2023/03/27 07:02:44;;;;;;;5.18;1.58;;;6.10;99.90;;;;;;5056061;28;20091;-67
2023/03/27 07:05:09;;;;;;;12.23;1.58;;;6.10;99.90;;;;;;5075429;28;20480;-67
2023/03/27 07:07:35;;;;;;;11.27;1.33;;;6.10;99.90;;;;;;5075493;28;20056;-67
2023/03/27 07:10:00;;;;;;;12.00;2.00;;;6.30;99.90;;;;;;5054861;28;20029;-67
2023/03/27 07:12:26;;;;;;;20.10;2.00;;;6.50;99.90;;;;;;5067234;28;20048;-68
2023/03/27 07:14:52;;;;;;;8.60;1.80;;;6.50;99.90;;;;;;5074210;28;20025;-67
2023/03/27 07:17:17;;;;;;;4.60;1.50;;;6.50;99.90;;;;;;5073954;28;20016;-66
2023/03/27 07:19:43;;;;;;;7.85;1.90;;;6.60;99.90;;;;;;5056853;28;20079;-67
2023/03/27 07:22:09;;;;;;;9.20;1.83;;;6.70;99.90;;;;;;5055334;28;20108;-67
2023/03/27 07:24:34;;;;;;;14.63;1.85;;;6.70;99.90;;;;;;5053456;28;20063;-68
2023/03/27 07:27:00;;;;;;;10.23;1.47;;;6.70;99.90;;;;;;5054005;28;20036;-67
2023/03/27 07:29:26;;;;;;;6.63;1.37;;;6.50;99.90;;;;;;5055171;28;20021;-66
2023/03/27 07:31:51;;;;;;;5.57;1.30;;;6.30;99.90;;;;;;5053622;28;20036;-66
2023/03/27 07:34:17;;;;;;;12.17;2.13;;;6.30;99.90;;;;;;5054073;28;20025;-66
2023/03/27 07:36:43;;;;;;;8.77;1.87;;;6.20;99.90;;;;;;5070259;28;20029;-66
2023/03/27 07:39:11;;;;;;;7.70;1.75;;;6.10;99.90;;;;;;5069202;28;20017;-66
2023/03/27 07:41:36;;;;;;;6.53;1.75;;;6.20;99.90;;;;;;5055081;28;20021;-66
2023/03/27 07:44:02;;;;;;;5.80;1.33;;;6.20;99.90;;;;;;5057840;28;20051;-66
2023/03/27 07:46:28;;;;;;;10.00;1.77;;;6.20;99.40;;;;;;5072805;28;20029;-67
2023/03/27 07:48:55;;;;;;;9.00;1.80;;;6.20;98.60;;;;;;5074124;28;20028;-67
2023/03/27 07:51:22;;;;;;;7.45;1.83;;;6.20;99.20;;;;;;5077784;28;20032;-67
2023/03/27 07:53:52;;;;;;;;;;;6.20;99.50;;;;;;5075526;28;20058;-67
2023/03/27 07:56:19;;;;;;;10.07;1.58;;;6.30;98.80;;;;;;5070659;28;19952;-68
2023/03/27 07:58:45;;;;;;;6.03;1.10;;;6.40;99.00;;;;;;5053036;28;20047;-67
2023/03/27 08:01:11;;;;;;;13.43;2.30;;;6.30;99.40;;;;;;5054082;28;20497;-67
2023/03/27 08:03:38;;;;;;;9.47;1.60;;;6.30;97.90;;;;;;5053896;28;20101;-67
2023/03/27 08:06:05;;;;;;;9.70;1.70;;;6.30;98.60;;;;;;5054987;28;20288;-68
2023/03/27 08:08:30;;;;;;;11.98;2.22;;;6.20;98.40;;;;;;5054529;28;20394;-68
2023/03/27 08:10:57;;;;;;;11.53;1.90;;;6.30;98.80;;;;;;5053979;28;20032;-67
2023/03/27 08:13:22;;;;;;;6.38;1.50;;;6.40;98.10;;;;;;5060388;28;20483;-67
2023/03/27 08:15:48;;;;;;;7.07;1.57;;;6.30;97.70;;;;;;5075251;28;20060;-67
2023/03/27 08:18:14;;;;;;;6.57;1.70;;;6.40;97.70;;;;;;5057957;28;20025;-66
2023/03/27 08:20:39;;;;;;;8.30;1.40;;;6.50;98.10;;;;;;5073808;28;20370;-67
2023/03/27 08:23:05;;;;;;;6.73;1.47;;;6.50;97.60;;;;;;5057640;28;20025;-67
2023/03/27 08:25:32;;;;;;;5.73;1.63;;;6.50;96.90;;;;;;5057425;28;20029;-68
2023/03/27 08:27:58;;;;;;;;;;;6.60;97.10;;;;;;5057475;28;20071;-67
2023/03/27 08:30:23;;;;;;;11.38;2.25;;;6.60;96.30;;;;;;5056097;28;19995;-67
2023/03/27 08:32:50;;;;;;;8.00;1.33;;;6.70;96.80;;;;;;5069685;28;20025;-67
2023/03/27 08:35:16;;;;;;;6.43;1.52;;;6.60;96.00;;;;;;5069016;28;20037;-67
2023/03/27 08:37:42;;;;;;;5.43;1.13;;;6.70;95.90;;;;;;5053162;28;20030;-67
2023/03/27 08:40:18;;;;;;;8.50;1.70;;;6.90;96.50;;;;;;5054269;28;20025;-67
2023/03/27 08:42:48;;;;;;;8.50;1.83;;;7.00;96.10;;;;;;5057307;28;20024;-67
2023/03/27 08:45:19;;;;;;;7.90;1.52;;;7.20;96.20;;;;;;5071045;28;20424;-67
2023/03/27 08:47:53;;;;;;;6.43;1.48;;;7.50;95.60;;;;;;5053970;28;20021;-66
2023/03/27 08:50:33;;;;;;;6.63;1.98;;;7.90;94.80;;;;;;5053992;28;20087;-66
2023/03/27 08:52:59;;;;;;;8.07;1.60;;;7.80;93.90;;;;;;5056436;28;20024;-67
2023/03/27 08:55:39;;;;;;;;;;;8.00;94.00;;;;;;5053913;28;20029;-67
2023/03/27 08:58:12;;;;;;;4.55;1.10;;;8.40;93.70;;;;;;5054116;28;19913;-67
2023/03/27 09:00:40;;;;;;;9.90;1.60;;;8.40;92.00;;;;;;5054328;28;20017;-67
2023/03/27 09:03:18;;;;;;;8.85;1.98;;;8.80;92.20;;;;;;5069201;28;20071;-68
2023/03/27 09:06:00;;;;;;;7.25;1.30;;;11.50;90.20;;;;;;5055453;28;20119;-67
2023/03/27 09:08:45;;;;;;;10.50;2.13;;;13.40;80.00;;;;;;5054533;28;20124;-67
2023/03/27 09:11:22;;;;;;;7.00;1.40;;;13.30;76.80;;;;;;5054072;28;20111;-67
2023/03/27 09:13:50;;;;;;;5.43;1.17;;;13.50;75.70;;;;;;5053164;28;20025;-67
2023/03/27 09:16:29;;;;;;;8.02;1.83;;;13.50;72.90;;;;;;5053609;28;20048;-67
2023/03/27 09:19:02;;;;;;;6.28;1.50;;;14.40;71.60;;;;;;5054283;28;20876;-68
2023/03/27 09:21:41;;;;;;;7.22;1.23;;;17.30;66.30;;;;;;5071895;28;20041;-67
2023/03/27 09:24:18;;;;;;;5.47;1.38;;;19.60;59.30;;;;;;5072176;28;20020;-68
2023/03/27 09:26:44;;;;;;;4.10;0.82;;;20.60;54.90;;;;;;5054714;28;20053;-68
2023/03/27 09:29:18;;;;;;;;;;;21.00;52.90;;;;;;5054176;28;20037;-68
2023/03/27 09:31:55;;;;;;;4.00;1.35;;;22.40;51.10;;;;;;5052018;28;20007;-68
2023/03/27 09:34:27;;;;;;;7.07;1.23;;;22.60;50.50;;;;;;5052371;28;20036;-67
2023/03/27 09:36:54;;;;;;;4.40;1.38;;;22.10;49.30;;;;;;5052164;28;20082;-66
2023/03/27 09:39:26;;;;;;;4.53;1.27;;;22.00;49.50;;;;;;5052801;28;20027;-66
2023/03/27 09:42:18;;;;;;;4.75;1.55;;;21.30;50.10;;;;;;5051450;28;20087;-66
2023/03/27 09:44:49;;;;;;;6.90;1.20;;;19.10;51.80;;;;;;5048738;28;20393;-67
2023/03/27 09:47:16;;;;;;;4.00;1.15;;;15.70;55.10;;;;;;5052662;28;20553;-67
2023/03/27 09:50:10;;;;;;;5.28;1.00;;;14.70;56.60;;;;;;5053785;28;20032;-67
2023/03/27 09:52:38;;;;;;;6.78;1.20;;;15.90;55.20;;;;;;5053811;28;20099;-67
2023/03/27 09:55:31;;;;;;;7.70;1.20;;;19.00;52.90;;;;;;5056618;28;20041;-67
2023/03/27 09:58:08;;;;;;;4.20;0.88;;;21.30;50.50;;;;;;5056717;28;20063;-67
2023/03/27 10:00:35;;;;;;;6.20;1.20;;;19.90;48.50;;;;;;5055140;28;20036;-68
2023/03/27 10:03:06;;;;;;;7.05;1.80;;;20.90;49.20;;;;;;5056370;28;20021;-66
2023/03/27 10:05:33;;;;;;;4.07;1.00;;;22.40;48.40;;;;;;5056538;28;20021;-66
2023/03/27 10:08:00;;;;;;;3.63;0.85;;;23.90;46.20;;;;;;5055161;28;20021;-67
2023/03/27 10:10:30;;;;;;;6.18;1.20;;;23.90;44.90;;;;;;5056324;28;20025;-67
2023/03/27 10:12:58;;;;;;;5.55;1.42;;;23.40;45.90;;;;;;5056352;28;20033;-67
2023/03/27 10:15:39;;;;;;;6.03;1.60;;;22.70;46.10;;;;;;5072511;28;20024;-66
2023/03/27 10:18:23;;;;;;;5.88;1.40;;;19.20;49.40;;;;;;5076739;28;20020;-67
2023/03/27 10:20:53;;;;;;;7.50;1.27;;;15.70;53.50;;;;;;5076720;28;20101;-67
2023/03/27 10:23:27;;;;;;;4.88;1.27;;;13.40;57.20;;;;;;5076320;28;20012;-67
2023/03/27 10:26:00;;;;;;;6.50;1.60;;;11.80;60.40;;;;;;5066648;28;20039;-67
2023/03/27 10:28:34;;;;;;;7.20;1.30;;;10.90;63.20;;;;;;5055833;28;20090;-67
2023/03/27 10:31:00;;;;;;;8.38;1.95;;;9.60;66.80;;;;;;5054248;28;20032;-68
2023/03/27 10:33:38;;;;;;;6.32;1.52;;;10.60;68.10;;;;;;5055329;28;20436;-67
2023/03/27 10:36:06;;;;;;;4.97;0.93;;;14.40;61.00;;;;;;5056133;28;20096;-67
2023/03/27 10:38:34;;;;;;;6.07;1.02;;;17.30;55.30;;;;;;5055993;28;20082;-67
2023/03/27 10:41:12;;;;;;;4.25;1.00;;;19.50;52.60;;;;;;5060441;28;20047;-67
2023/03/27 10:43:43;;;;;;;2.63;1.45;;;19.90;50.00;;;;;;5059055;28;20025;-67
2023/03/27 10:46:27;;;;;;;6.57;0.82;;;19.80;49.50;;;;;;5055079;28;20079;-68
2023/03/27 10:49:17;;;;;;;5.80;1.25;;;20.30;48.70;;;;;;5057186;28;20033;-68
2023/03/27 10:51:46;;;;;;;5.18;1.02;;;20.40;48.20;;;;;;5056660;28;20031;-66
2023/03/27 10:54:23;;;;;;;5.38;1.10;;;21.10;49.30;;;;;;5054807;28;20025;-68
2023/03/27 10:57:07;;;;;;;5.20;1.05;;;21.40;47.70;;;;;;5065190;28;20473;-69
2023/03/27 10:59:41;;;;;;;6.20;1.10;;;18.00;51.10;;;;;;5056302;28;20021;-68
2023/03/27 11:02:28;;;;;;;5.63;1.00;;;16.40;52.50;;;;;;5052858;28;20025;-74
2023/03/27 11:05:02;;;;;;;3.90;0.88;;;15.20;54.20;;;;;;5055711;28;20048;-75
2023/03/27 11:07:32;;;;;;;4.32;1.15;;;14.00;54.90;;;;;;5055610;28;20500;-74
2023/03/27 11:10:21;;;;;;;1.98;0.63;;;13.70;56.00;;;;;;5061172;28;20036;-71
2023/03/27 11:13:02;;;;;;;5.15;1.13;;;12.50;57.70;;;;;;5060772;28;20021;-70
2023/03/27 11:15:40;;;;;;;6.97;0.82;;;11.30;60.40;;;;;;5060844;28;20484;-69
2023/03/27 11:18:18;;;;;;;5.07;1.42;;;10.60;62.80;;;;;;5081533;28;20449;-70
2023/03/27 11:20:58;;;;;;;4.97;0.90;;;10.40;63.90;;;;;;5081449;28;20083;-70
2023/03/27 11:23:33;;;;;;;4.60;1.15;;;10.30;64.40;;;;;;5078539;28;20016;-71
2023/03/27 11:26:00;;;;;;;3.67;0.80;;;10.30;65.50;;;;;;5077682;28;20495;-74
2023/03/27 11:28:38;;;;;;;4.90;1.00;;;10.20;67.40;;;;;;5075617;28;20028;-71
2023/03/27 11:31:45;;;;;;;8.07;1.67;;;10.10;67.70;;;;;;5074868;28;20020;-71
2023/03/27 11:34:28;;;;;;;3.15;1.27;;;10.10;68.40;;;;;;5034028;28;20041;-72
2023/03/27 11:37:01;;;;;;;7.38;1.23;;;10.10;70.20;;;;;;5030176;28;20398;-71
2023/03/27 11:39:48;;;;;;;5.25;1.00;;;10.20;69.70;;;;;;5014343;28;20569;-72
2023/03/27 11:42:26;;;;;;;6.75;1.10;;;10.40;69.20;;;;;;5013838;28;20069;-72
2023/03/27 11:44:53;;;;;;;4.50;1.25;;;10.40;70.10;;;;;;5013620;28;20487;-72
2023/03/27 11:47:30;;;;;;;4.53;0.90;;;10.80;70.20;;;;;;5020108;28;20022;-75
2023/03/27 11:50:27;;;;;;;6.35;1.13;;;10.90;69.60;;;;;;5016009;28;20464;-72
2023/03/27 11:53:13;;;;;;;5.05;1.08;;;10.80;70.30;;;;;;5016699;28;20499;-71
2023/03/27 11:55:50;;;;;;;4.97;1.10;;;10.90;70.50;;;;;;5015594;28;20570;-70
2023/03/27 11:58:38;;;;;;;4.90;1.15;;;11.00;70.50;;;;;;5039383;23;20026;-67
2023/03/27 12:01:22;;;;;;;6.60;1.30;;;11.30;69.20;;;;;;5067583;28;20037;-68
2023/03/27 12:04:20;;;;;;;6.15;1.00;;;11.00;68.20;;;;;;5054783;28;20029;-66
2023/03/27 12:06:49;;;;;;;;;;;11.30;67.50;;;;;;5035123;28;20152;-67
2023/03/27 12:09:45;;;;;;;2.33;0.60;;;11.40;66.70;;;;;;5034651;28;19905;-68
2023/03/27 12:12:26;;;;;;;4.75;1.20;;;11.30;66.60;;;;;;5034900;28;20102;-68
2023/03/27 12:15:09;;;;;;;7.05;1.30;;;11.20;67.10;;;;;;5034083;28;20563;-68
2023/03/27 12:18:08;;;;;;;5.63;1.02;;;10.70;67.20;;;;;;5039621;28;20144;-66
2023/03/27 12:20:45;;;;;;;3.92;1.00;;;10.70;67.70;;;;;;5050001;28;20357;-68
2023/03/27 12:23:49;;;;;;;1.85;0.80;;;10.50;68.30;;;;;;5035846;28;20045;-66
2023/03/27 12:26:30;;;;;;;5.10;1.00;;;10.50;68.80;;;;;;5036960;28;20123;-68
2023/03/27 12:29:15;;;;;;;3.67;1.27;;;10.20;69.00;;;;;;5036943;28;20033;-67
2023/03/27 12:32:12;;;;;;;4.25;1.20;;;10.10;68.80;;;;;;5050611;28;20040;-68
2023/03/27 12:34:56;;;;;;;5.47;1.15;;;9.80;69.20;;;;;;5053801;28;20453;-68
2023/03/27 12:37:29;;;;;;;3.92;1.17;;;9.80;70.70;;;;;;5054210;28;20492;-68
2023/03/27 12:39:59;;;;;;;4.72;1.25;;;9.60;72.20;;;;;;5054246;28;20033;-67
2023/03/27 12:43:02;;;;;;;7.43;1.60;;;9.50;77.50;;;;;;5051325;28;20036;-66
2023/03/27 12:45:28;;;;;;;6.22;1.63;;;9.40;84.50;;;;;;5023942;28;20099;-68
2023/03/27 12:48:08;;;;;;;3.70;1.60;;;9.10;87.50;;;;;;5053210;28;20477;-67
2023/03/27 12:50:43;;;;;;;8.18;1.92;;;8.90;92.30;;;;;;5053796;28;20074;-66
2023/03/27 12:53:38;;;;;;;8.55;1.20;;;8.60;95.00;;;;;;5054498;28;20036;-67
2023/03/27 12:56:15;;;;;;;8.35;1.75;;;8.40;97.60;;;;;;5044128;28;20039;-68
2023/03/27 12:58:53;;;;;;;5.53;1.50;;;8.40;99.90;;;;;;5054667;28;20171;-68
2023/03/27 13:01:24;;;;;;;4.63;1.48;;;8.70;99.90;;;;;;5053132;28;20462;-67
2023/03/27 13:04:24;;;;;;;7.80;1.38;;;9.00;99.90;;;;;;5054476;28;20107;-68
2023/03/27 13:07:09;;;;;;;5.30;1.42;;;9.10;99.90;;;;;;5054380;28;20017;-70
2023/03/27 13:10:05;;;;;;;4.28;1.05;;;9.20;99.20;;;;;;5053123;28;20025;-68
2023/03/27 13:12:46;;;;;;;5.30;1.55;;;9.20;99.90;;;;;;5047476;28;20036;-67
2023/03/27 13:15:31;;;;;;;11.38;1.20;;;9.40;99.90;;;;;;5054950;28;20025;-67
2023/03/27 13:18:03;;;;;;;4.80;1.30;;;9.40;99.60;;;;;;5046554;28;20052;-69
2023/03/27 13:20:48;;;;;;;3.97;1.20;;;9.30;98.70;;;;;;5054762;28;20017;-67
2023/03/27 13:23:27;;;;;;;4.55;1.30;;;8.90;99.80;;;;;;5055081;28;20037;-67